KABE/ABE METAR and TAF weather

Enter ICAO airport designator
Station Type Date Time Source
KABE METAR 2019/02/23 16:51 UTC NOAA

KABE 231651Z 08005KT 10SM CLR 04/M05 A3043 RMK AO2 SLP309 T00391050


Station Type Date Time Source
KABE Decoded METAR 2019/02/23 16:51 UTC NOAA

LEHIGH VALLEY INTERNATIONAL AIRPORT, PA, United States (KABE) 40-39N 075-27W 114M
Feb 23, 2019 - 11:51 AM EST / 2019.02.23 1651 UTC
Wind: from the E (080 degrees) at 6 MPH (5 KT):0
Visibility: 10 mile(s):0
Sky conditions: clear
Temperature: 39.0 F (3.9 C)
Dew Point: 23.0 F (-5.0 C)
Relative Humidity: 52%
Pressure (altimeter): 30.43 in. Hg (1030 hPa)
ob: KABE 231651Z 08005KT 10SM CLR 04/M05 A3043 RMK AO2 SLP309 T00391050
cycle: 17

Station Type Date Time Source
KABE TAF 2019/02/23 12:30 UTC NOAA

TAF KABE 231127Z 2312/2412 VRB02KT P6SM BKN250
FM232000 15005KT P6SM OVC050
FM240000 12004KT 5SM -RA OVC030
FM240300 09004KT 4SM -RA OVC015
FM240700 07004KT 2SM RA BR OVC008


Example: see airport list